Time;durP1;ratioP1;P1;durP2;ratioP2;P2;SDS_P1;SDS_P2;PMS_P1;PMS_P2;Temp;Humidity;BMP_temperature;BMP_pressure;BME280_temperature;BME280_humidity;BME280_pressure;Samples;Min_cycle;Max_cycle;Signal;HPM_P1;HPM_P2
2022/02/09 00:06:43;;;;;;;7.40;3.65;;;9.80;99.90;;;;;;4965178;28;47987;-77
2022/02/09 00:09:10;;;;;;;7.07;3.87;;;9.80;99.90;;;;;;4986018;28;37768;-78
2022/02/09 00:11:46;;;;;;;6.83;4.33;;;9.80;99.90;;;;;;4985388;28;35989;-78
2022/02/09 00:14:26;;;;;;;7.63;4.60;;;9.80;99.90;;;;;;4999617;28;38071;-79
2022/02/09 00:19:58;;;;;;;8.03;4.93;;;9.70;99.90;;;;;;4980029;28;48897;-79
2022/02/09 00:33:29;;;;;;;9.00;4.80;;;9.70;99.90;;;;;;4982834;28;38739;-78
2022/02/09 01:11:39;;;;;;;6.50;3.70;;;9.70;99.90;;;;;;4995357;28;39778;-78
2022/02/09 01:38:24;;;;;;;6.70;4.43;;;9.70;99.90;;;;;;4990177;28;37110;-78
2022/02/09 01:41:43;;;;;;;7.50;4.43;;;9.80;99.90;;;;;;4974076;28;38937;-78
2022/02/09 01:56:55;;;;;;;7.93;5.53;;;9.80;99.90;;;;;;4978285;28;38820;-78
2022/02/09 01:59:22;;;;;;;5.47;4.20;;;9.80;99.90;;;;;;4976822;28;36886;-79
2022/02/09 02:01:48;;;;;;;5.77;4.23;;;9.70;99.90;;;;;;4994365;28;39124;-77
2022/02/09 02:04:14;;;;;;;7.03;4.90;;;9.70;99.90;;;;;;4974671;28;37560;-78
2022/02/09 02:06:47;;;;;;;7.37;4.90;;;9.70;99.90;;;;;;4969835;28;39425;-77
2022/02/09 02:09:14;;;;;;;8.35;4.95;;;9.70;99.90;;;;;;4975976;28;37393;-79
2022/02/09 02:11:53;;;;;;;6.77;5.80;;;9.70;99.90;;;;;;4981660;28;37791;-77
2022/02/09 02:17:24;;;;;;;8.07;6.80;;;9.70;99.90;;;;;;4949079;28;38862;-77
2022/02/09 02:19:58;;;;;;;9.73;7.00;;;9.70;99.90;;;;;;4982267;28;36383;-77
2022/02/09 02:27:53;;;;;;;10.53;8.40;;;9.70;99.90;;;;;;4981625;28;49004;-79
2022/02/09 02:38:18;;;;;;;12.10;8.90;;;9.70;99.90;;;;;;4983487;28;39537;-79
2022/02/09 02:57:19;;;;;;;10.80;8.47;;;9.70;99.90;;;;;;4999979;28;40113;-79
2022/02/09 03:13:09;;;;;;;10.40;8.77;;;9.60;99.90;;;;;;4997561;28;37207;-80
2022/02/09 03:15:47;;;;;;;9.13;8.23;;;9.60;99.90;;;;;;4994242;28;48672;-80
2022/02/09 03:21:01;;;;;;;9.93;8.93;;;9.50;99.90;;;;;;4997292;28;38716;-79
2022/02/09 03:42:20;;;;;;;11.53;9.30;;;9.40;99.90;;;;;;4998894;28;38139;-79
2022/02/09 03:51:05;;;;;;;8.63;7.80;;;9.40;99.90;;;;;;4974274;28;39429;-80
2022/02/09 03:58:33;;;;;;;11.33;7.90;;;9.40;99.90;;;;;;4980076;28;49206;-80
2022/02/09 04:01:00;;;;;;;10.13;7.43;;;9.40;99.90;;;;;;4981376;28;37844;-79
2022/02/09 04:03:26;;;;;;;8.03;7.23;;;9.40;99.90;;;;;;4973230;28;37713;-80
2022/02/09 04:05:52;;;;;;;10.40;8.30;;;9.40;99.90;;;;;;4981827;28;36735;-80
2022/02/09 04:08:20;;;;;;;8.50;7.70;;;9.40;99.90;;;;;;4980229;28;39283;-79
2022/02/09 04:11:01;;;;;;;8.97;8.00;;;9.40;99.90;;;;;;4975484;28;39863;-79
2022/02/09 04:13:41;;;;;;;8.37;7.27;;;9.30;99.90;;;;;;4975308;28;47524;-79
2022/02/09 04:19:07;;;;;;;8.67;7.87;;;9.40;99.90;;;;;;4975370;28;39182;-80
2022/02/09 04:51:31;;;;;;;9.53;7.97;;;9.30;99.90;;;;;;4976040;28;39692;-79
2022/02/09 04:59:49;;;;;;;7.13;6.43;;;9.30;99.90;;;;;;4981829;28;35967;-79
2022/02/09 05:28:41;;;;;;;7.60;6.80;;;9.10;99.90;;;;;;4981163;28;48744;-79
2022/02/09 05:31:09;;;;;;;9.73;7.30;;;9.10;99.90;;;;;;4977061;28;37329;-80
2022/02/09 05:33:35;;;;;;;8.60;6.97;;;9.20;99.90;;;;;;4981099;28;37815;-80
2022/02/09 05:36:02;;;;;;;9.13;6.83;;;9.20;99.90;;;;;;4972389;28;39560;-79
2022/02/09 05:38:28;;;;;;;10.03;6.63;;;9.20;99.90;;;;;;4973924;28;37229;-79
2022/02/09 05:40:54;;;;;;;6.93;6.07;;;9.20;99.90;;;;;;4972546;28;34906;-79
2022/02/09 05:43:23;;;;;;;9.87;7.17;;;9.20;99.90;;;;;;4974780;28;39429;-80
2022/02/09 05:51:17;;;;;;;10.23;7.20;;;9.20;99.90;;;;;;4981344;28;37907;-79
2022/02/09 05:56:38;;;;;;;8.53;6.97;;;9.20;99.90;;;;;;4978850;28;39576;-79
2022/02/09 06:01:36;;;;;;;7.97;6.97;;;9.20;99.90;;;;;;4979501;28;49304;-80
2022/02/09 06:04:02;;;;;;;9.03;7.50;;;9.20;99.90;;;;;;4982214;28;38979;-78
2022/02/09 06:06:28;;;;;;;9.10;7.77;;;9.10;99.90;;;;;;4982474;28;37581;-79
2022/02/09 06:08:56;;;;;;;10.57;7.43;;;9.10;99.90;;;;;;4987722;28;38090;-79
2022/02/09 06:11:31;;;;;;;8.73;7.83;;;9.10;99.90;;;;;;4979686;28;37363;-79
2022/02/09 06:14:15;;;;;;;9.17;8.20;;;9.10;99.90;;;;;;4978853;28;36631;-79
2022/02/09 06:21:58;;;;;;;11.67;8.50;;;9.10;99.90;;;;;;4982613;28;38164;-80
2022/02/09 06:24:24;;;;;;;11.53;9.90;;;9.00;99.90;;;;;;4981330;28;39652;-79
2022/02/09 06:26:51;;;;;;;11.90;9.00;;;9.00;99.90;;;;;;4977310;28;37584;-79
2022/02/09 06:29:17;;;;;;;11.67;10.57;;;9.00;99.90;;;;;;4982689;28;38017;-79
2022/02/09 06:31:44;;;;;;;12.17;10.87;;;9.00;99.90;;;;;;4977772;28;35916;-79
2022/02/09 06:34:18;;;;;;;12.30;10.50;;;9.00;99.90;;;;;;4980141;28;39103;-79
2022/02/09 06:36:52;;;;;;;14.10;11.63;;;9.00;99.90;;;;;;4982150;28;38673;-79
2022/02/09 06:39:20;;;;;;;13.73;11.33;;;9.00;99.90;;;;;;4983295;28;39804;-80
2022/02/09 06:41:46;;;;;;;13.10;10.73;;;9.00;99.90;;;;;;4980714;28;37701;-79
2022/02/09 06:44:13;;;;;;;15.10;12.90;;;8.90;99.90;;;;;;4985028;28;38914;-79
2022/02/09 06:46:39;;;;;;;12.50;11.20;;;8.90;99.90;;;;;;4980386;28;38036;-79
2022/02/09 06:49:08;;;;;;;13.53;12.10;;;8.80;99.90;;;;;;4994141;28;38703;-79
2022/02/09 06:51:37;;;;;;;13.00;11.50;;;8.80;99.90;;;;;;4981018;28;36926;-80
2022/02/09 06:54:14;;;;;;;15.63;12.13;;;8.80;99.90;;;;;;4998219;28;39798;-79
2022/02/09 06:59:20;;;;;;;13.13;11.63;;;8.80;99.90;;;;;;4981600;28;41835;-79
2022/02/09 07:01:46;;;;;;;13.57;12.13;;;8.70;99.90;;;;;;4997204;28;37489;-80
2022/02/09 07:04:12;;;;;;;16.73;12.57;;;8.70;99.90;;;;;;5002356;28;38231;-79
2022/02/09 07:06:39;;;;;;;17.63;14.27;;;8.70;99.90;;;;;;4999614;28;37849;-79
2022/02/09 07:09:08;;;;;;;15.00;13.20;;;8.70;99.90;;;;;;4983051;28;38609;-79
2022/02/09 07:11:34;;;;;;;14.90;13.40;;;8.70;99.90;;;;;;4983807;28;36582;-79
2022/02/09 07:14:00;;;;;;;17.97;15.20;;;8.70;99.90;;;;;;4995385;28;39271;-79
2022/02/09 07:16:28;;;;;;;21.07;16.80;;;8.70;99.90;;;;;;4983852;28;39040;-79
2022/02/09 07:18:54;;;;;;;16.80;14.93;;;8.70;99.90;;;;;;4986414;28;37362;-79
2022/02/09 07:21:25;;;;;;;20.00;16.63;;;8.70;99.90;;;;;;5001763;28;37317;-79
2022/02/09 07:23:53;;;;;;;19.27;16.37;;;8.70;99.90;;;;;;5003056;28;38937;-79
2022/02/09 07:26:26;;;;;;;18.10;16.20;;;8.70;99.90;;;;;;5000433;28;38560;-79
2022/02/09 07:28:53;;;;;;;20.07;17.80;;;8.70;99.90;;;;;;4985336;28;35481;-79
2022/02/09 07:31:20;;;;;;;19.43;16.37;;;8.70;99.90;;;;;;4985945;28;37287;-79
2022/02/09 07:33:46;;;;;;;17.93;15.27;;;8.70;99.90;;;;;;4986605;28;37783;-79
2022/02/09 07:36:14;;;;;;;16.53;14.77;;;8.70;99.90;;;;;;4985812;28;38631;-79
2022/02/09 07:38:41;;;;;;;19.77;14.33;;;8.70;99.90;;;;;;4980468;28;37508;-79
2022/02/09 07:41:08;;;;;;;17.03;14.40;;;8.70;99.90;;;;;;4996977;28;37296;-79
2022/02/09 07:43:45;;;;;;;16.20;13.23;;;8.70;99.90;;;;;;4982602;28;39602;-80
2022/02/09 07:49:26;;;;;;;20.63;12.87;;;8.70;99.90;;;;;;4918719;28;39352;-79
2022/02/09 07:52:04;;;;;;;16.53;12.83;;;8.70;99.90;;;;;;4920076;28;37862;-79
2022/02/09 07:54:31;;;;;;;18.57;12.50;;;8.70;99.90;;;;;;4969557;28;48276;-79
2022/02/09 07:56:57;;;;;;;13.90;12.50;;;8.70;99.90;;;;;;5000623;28;40340;-81
2022/02/09 07:59:24;;;;;;;13.63;12.23;;;8.70;99.90;;;;;;5004838;28;39249;-80
2022/02/09 08:01:51;;;;;;;13.63;11.50;;;8.70;99.90;;;;;;4984361;28;36438;-80
2022/02/09 08:04:17;;;;;;;13.63;12.23;;;8.70;99.90;;;;;;4987331;28;39593;-80
2022/02/09 08:06:45;;;;;;;14.67;12.50;;;8.80;99.90;;;;;;4987686;28;38873;-81
2022/02/09 08:09:23;;;;;;;14.17;12.27;;;8.80;99.90;;;;;;4992315;28;37992;-80
2022/02/09 08:27:55;;;;;;;15.17;11.83;;;9.00;99.90;;;;;;4995663;28;39024;-80
2022/02/09 08:30:43;;;;;;;11.33;10.23;;;9.00;99.90;;;;;;5001653;28;39282;-80
2022/02/09 08:33:18;;;;;;;13.00;10.90;;;9.00;99.90;;;;;;5002798;28;37505;-80
2022/02/09 08:35:52;;;;;;;13.40;11.33;;;9.00;99.90;;;;;;4984246;28;37649;-80
2022/02/09 08:38:18;;;;;;;14.67;11.50;;;9.10;99.90;;;;;;4980869;28;41512;-80
2022/02/09 08:40:46;;;;;;;13.57;11.83;;;9.10;99.90;;;;;;4980662;28;38381;-81
2022/02/09 08:43:13;;;;;;;14.63;11.93;;;9.10;99.90;;;;;;4983878;28;37814;-81
2022/02/09 08:45:41;;;;;;;12.47;10.83;;;9.10;99.90;;;;;;4978949;28;38920;-81
2022/02/09 08:48:09;;;;;;;15.17;11.47;;;9.10;99.90;;;;;;4980776;28;38753;-80
2022/02/09 08:50:35;;;;;;;16.03;11.43;;;9.20;99.90;;;;;;4984616;28;39115;-80
2022/02/09 08:53:04;;;;;;;12.57;11.23;;;9.10;99.90;;;;;;4980443;28;38461;-79
2022/02/09 08:55:30;;;;;;;13.23;10.60;;;9.20;99.90;;;;;;4979115;28;40358;-80
2022/02/09 08:57:56;;;;;;;13.07;10.33;;;9.20;99.90;;;;;;4982790;28;38925;-80
2022/02/09 09:00:31;;;;;;;13.97;11.17;;;9.20;99.90;;;;;;4983903;28;38352;-80
2022/02/09 09:03:09;;;;;;;12.33;10.77;;;9.20;99.90;;;;;;4978924;28;38527;-80
2022/02/09 09:05:59;;;;;;;14.10;10.73;;;9.30;99.90;;;;;;4981093;28;47213;-80
2022/02/09 09:08:42;;;;;;;13.40;9.63;;;9.30;99.90;;;;;;4980644;28;39089;-80
2022/02/09 09:17:15;;;;;;;15.17;10.30;;;9.40;99.90;;;;;;4977430;28;39373;-80
2022/02/09 09:25:23;;;;;;;14.67;10.47;;;9.50;99.90;;;;;;4981383;28;39594;-79
2022/02/09 09:58:10;;;;;;;13.53;10.60;;;10.10;99.90;;;;;;5119504;27;38220;-79
2022/02/09 10:03:57;;;;;;;13.10;10.57;;;10.10;99.90;;;;;;5106461;27;38310;-78
2022/02/09 10:34:13;;;;;;;19.50;11.90;;;10.40;99.90;;;;;;5107036;27;39763;-78
2022/02/09 10:36:50;;;;;;;15.90;12.48;;;10.40;99.90;;;;;;5122297;27;38370;-78
2022/02/09 10:39:22;;;;;;;16.57;11.87;;;10.30;99.90;;;;;;5110884;27;37785;-79
2022/02/09 10:42:14;;;;;;;15.50;11.90;;;10.30;99.90;;;;;;5122781;27;37380;-78
2022/02/09 10:45:18;;;;;;;15.40;11.60;;;10.30;99.90;;;;;;5118068;27;47528;-80
2022/02/09 10:47:44;;;;;;;15.27;12.17;;;10.20;99.90;;;;;;5101609;27;47372;-78
2022/02/09 10:50:31;;;;;;;14.30;12.20;;;10.20;99.90;;;;;;5118347;27;37945;-79
2022/02/09 10:53:01;;;;;;;14.73;12.20;;;10.10;99.90;;;;;;5096312;27;37604;-78
2022/02/09 10:55:38;;;;;;;17.10;12.80;;;10.20;99.90;;;;;;5110808;27;48516;-78
2022/02/09 10:58:05;;;;;;;16.27;12.43;;;10.20;99.90;;;;;;5104442;27;38082;-78
2022/02/09 11:00:31;;;;;;;17.00;12.70;;;10.20;99.90;;;;;;5114262;27;38277;-79
2022/02/09 11:02:57;;;;;;;16.30;13.23;;;10.20;99.90;;;;;;5102294;27;36732;-78
2022/02/09 11:05:25;;;;;;;19.73;13.53;;;10.30;99.90;;;;;;5110325;27;40431;-78
2022/02/09 11:07:54;;;;;;;17.67;12.13;;;10.40;99.90;;;;;;5103735;27;39100;-79
2022/02/09 11:10:22;;;;;;;16.13;12.43;;;10.40;99.90;;;;;;5100382;27;37039;-78
2022/02/09 11:12:50;;;;;;;16.73;12.67;;;10.40;99.90;;;;;;5095921;27;37429;-78
2022/02/09 11:15:20;;;;;;;17.17;10.87;;;10.50;99.90;;;;;;5105004;27;40439;-79
2022/02/09 11:17:47;;;;;;;16.47;11.90;;;10.60;99.90;;;;;;5107960;27;38297;-79
2022/02/09 11:20:21;;;;;;;16.10;12.27;;;10.60;99.90;;;;;;5100564;27;36916;-79
2022/02/09 11:22:48;;;;;;;17.03;11.93;;;10.60;99.90;;;;;;5096317;27;37837;-78
2022/02/09 11:25:20;;;;;;;13.97;11.23;;;10.70;99.90;;;;;;5103768;27;37758;-78
2022/02/09 11:27:57;;;;;;;;;;;10.60;99.90;;;;;;5099866;27;37257;-79
2022/02/09 11:30:33;;;;;;;15.73;11.93;;;10.50;99.90;;;;;;5106418;27;36522;-79
2022/02/09 11:36:32;;;;;;;22.37;12.40;;;10.40;99.90;;;;;;5107820;27;49158;-79
2022/02/09 11:39:32;;;;;;;16.70;11.90;;;10.50;99.90;;;;;;5099909;27;47862;-79
2022/02/09 11:45:29;;;;;;;14.25;10.23;;;10.60;99.90;;;;;;5101577;27;48285;-78
2022/02/09 11:51:04;;;;;;;12.70;10.20;;;10.70;99.90;;;;;;5102813;27;49215;-79
2022/02/09 11:56:58;;;;;;;14.43;9.67;;;10.70;99.90;;;;;;5080654;27;49639;-79
2022/02/09 12:11:09;;;;;;;16.00;7.97;;;10.50;99.90;;;;;;5101917;27;39367;-79
2022/02/09 12:13:58;;;;;;;13.43;7.60;;;10.50;99.90;;;;;;5118398;27;47492;-79
2022/02/09 12:16:48;;;;;;;13.40;7.37;;;10.60;99.90;;;;;;5078138;27;36816;-79
2022/02/09 12:22:18;;;;;;;12.10;7.27;;;10.80;99.90;;;;;;5074252;27;39430;-78
2022/02/09 12:24:45;;;;;;;11.20;7.57;;;10.90;99.90;;;;;;5083741;27;39074;-79
2022/02/09 12:27:14;;;;;;;12.20;7.80;;;10.80;99.90;;;;;;5094622;27;37524;-78
2022/02/09 12:29:41;;;;;;;11.05;7.97;;;10.80;99.90;;;;;;5104208;27;37382;-79
2022/02/09 12:32:16;;;;;;;12.00;7.90;;;10.70;99.90;;;;;;5086285;27;37913;-78
2022/02/09 12:34:59;;;;;;;11.33;7.13;;;10.70;99.90;;;;;;5086800;27;39060;-79
2022/02/09 12:37:31;;;;;;;11.07;7.33;;;10.70;99.90;;;;;;5094711;27;36483;-79
2022/02/09 12:40:08;;;;;;;15.18;7.97;;;10.80;99.90;;;;;;5112465;27;36323;-78
2022/02/09 12:42:41;;;;;;;9.87;7.10;;;10.70;99.90;;;;;;5086659;27;48180;-78
2022/02/09 12:45:13;;;;;;;12.27;7.70;;;10.70;99.90;;;;;;5090314;27;38834;-78
2022/02/09 12:47:45;;;;;;;9.60;7.35;;;10.70;99.90;;;;;;5102063;27;36712;-79
2022/02/09 12:50:15;;;;;;;13.90;6.90;;;10.80;99.90;;;;;;5098839;27;37375;-78
2022/02/09 12:52:43;;;;;;;13.13;7.60;;;10.90;99.90;;;;;;5095016;27;37803;-79
2022/02/09 12:55:12;;;;;;;12.32;7.80;;;10.90;99.90;;;;;;5084097;27;39007;-78
2022/02/09 12:57:42;;;;;;;11.50;7.40;;;11.00;99.90;;;;;;5100231;27;38279;-79
2022/02/09 13:00:41;;;;;;;11.30;7.60;;;11.00;99.90;;;;;;5100758;27;36434;-79
2022/02/09 13:03:11;;;;;;;12.35;7.13;;;11.10;99.90;;;;;;5099835;27;39603;-79
2022/02/09 13:05:44;;;;;;;9.88;7.43;;;11.10;99.90;;;;;;5100075;27;38527;-79
2022/02/09 13:08:11;;;;;;;10.43;7.20;;;11.20;99.90;;;;;;5082043;27;35546;-79
2022/02/09 13:10:39;;;;;;;10.57;7.35;;;11.10;99.90;;;;;;5083522;27;38328;-79
2022/02/09 13:15:46;;;;;;;10.88;7.35;;;11.00;99.90;;;;;;5077084;27;38148;-79
2022/02/09 14:03:37;;;;;;;16.23;8.50;;;10.50;99.90;;;;;;5101947;27;48658;-78
2022/02/09 14:14:07;;;;;;;15.00;7.97;;;10.70;99.90;;;;;;5102519;27;40916;-78
2022/02/09 14:16:53;;;;;;;14.73;7.38;;;10.80;99.90;;;;;;5097177;27;47110;-78
2022/02/09 14:34:24;;;;;;;9.38;6.40;;;11.20;99.90;;;;;;5097629;27;39422;-79
2022/02/09 14:52:42;;;;;;;11.65;5.93;;;11.10;99.90;;;;;;5105365;27;39938;-78
2022/02/09 14:57:47;;;;;;;10.30;5.90;;;11.20;99.90;;;;;;5095519;27;38646;-79
2022/02/09 15:00:19;;;;;;;12.27;5.75;;;11.10;99.90;;;;;;5094597;27;35976;-78
2022/02/09 15:07:46;;;;;;;11.05;5.38;;;11.10;99.90;;;;;;5073491;27;37457;-78
2022/02/09 15:10:26;;;;;;;9.30;5.03;;;11.20;99.90;;;;;;5075687;27;36616;-78
2022/02/09 15:15:38;;;;;;;11.57;5.30;;;11.10;99.90;;;;;;5098635;27;38790;-78
2022/02/09 15:21:20;;;;;;;8.23;4.43;;;11.00;99.90;;;;;;5060268;28;36361;-78
2022/02/09 15:23:48;;;;;;;12.20;4.68;;;11.00;99.90;;;;;;5092996;27;37921;-78
2022/02/09 15:26:14;;;;;;;10.37;4.93;;;11.00;99.90;;;;;;5093708;27;40252;-77
2022/02/09 15:28:41;;;;;;;9.30;4.57;;;11.00;99.90;;;;;;5094503;27;38464;-79
2022/02/09 15:31:16;;;;;;;11.00;4.80;;;10.90;99.90;;;;;;5101096;27;38288;-77
2022/02/09 15:33:47;;;;;;;13.13;5.40;;;10.90;99.90;;;;;;5076841;28;39125;-79
2022/02/09 15:36:16;;;;;;;12.35;5.10;;;10.90;99.90;;;;;;5081950;27;38181;-78
2022/02/09 15:38:47;;;;;;;10.15;4.82;;;10.80;99.90;;;;;;5089126;27;37522;-78
2022/02/09 15:41:26;;;;;;;9.90;4.80;;;10.80;99.90;;;;;;5071311;27;36315;-78
2022/02/09 16:06:01;;;;;;;12.70;5.50;;;10.50;99.90;;;;;;5079256;27;38490;-78
2022/02/09 16:16:48;;;;;;;13.97;6.73;;;10.30;99.90;;;;;;5099700;27;38958;-78
2022/02/09 16:22:09;;;;;;;9.60;6.17;;;10.30;99.90;;;;;;5078880;27;37821;-77
2022/02/09 16:48:27;;;;;;;11.67;5.27;;;10.10;99.90;;;;;;5100028;27;47471;-79
2022/02/09 16:50:53;;;;;;;14.20;5.03;;;10.10;99.90;;;;;;5088019;27;38677;-79
2022/02/09 17:19:52;;;;;;;14.93;7.30;;;9.80;99.90;;;;;;5085230;27;40345;-79
2022/02/09 17:22:19;;;;;;;13.80;7.07;;;9.70;99.90;;;;;;5084936;28;37422;-79
2022/02/09 17:24:45;;;;;;;14.57;7.37;;;9.70;99.90;;;;;;5086477;27;38138;-80
2022/02/09 17:27:19;;;;;;;20.80;7.50;;;9.60;99.90;;;;;;5105657;27;36821;-79
2022/02/09 17:32:33;;;;;;;18.43;8.50;;;9.50;99.90;;;;;;5093341;27;38515;-80
2022/02/09 17:53:35;;;;;;;24.93;10.37;;;9.30;99.90;;;;;;5091793;27;49202;-77
2022/02/09 17:56:05;;;;;;;26.93;9.33;;;9.30;99.90;;;;;;5098583;27;37886;-78
2022/02/09 17:58:44;;;;;;;27.40;9.33;;;9.30;99.90;;;;;;5108472;27;48976;-78
2022/02/09 18:01:11;;;;;;;25.30;9.80;;;9.30;99.90;;;;;;5101261;27;37525;-78
2022/02/09 18:03:37;;;;;;;16.73;9.33;;;9.20;99.90;;;;;;5118047;27;38122;-77
2022/02/09 18:06:27;;;;;;;24.00;9.43;;;9.20;99.90;;;;;;5104108;27;37869;-77
2022/02/09 18:09:10;;;;;;;26.57;10.17;;;9.20;99.90;;;;;;5109010;27;37766;-78
2022/02/09 18:30:30;;;;;;;20.40;9.90;;;9.10;99.90;;;;;;5098402;27;38013;-78
2022/02/09 18:33:12;;;;;;;18.07;8.97;;;9.10;99.90;;;;;;5103398;27;39738;-79
2022/02/09 18:47:03;;;;;;;20.63;9.88;;;9.10;99.90;;;;;;5109419;27;38471;-76
2022/02/09 19:03:05;;;;;;;21.33;8.87;;;9.10;99.90;;;;;;5091462;27;49379;-78
2022/02/09 19:05:41;;;;;;;22.87;10.40;;;9.00;99.90;;;;;;5100871;27;48752;-79
2022/02/09 19:19:21;;;;;;;22.20;8.47;;;9.10;99.90;;;;;;5103489;27;39914;-76
2022/02/09 19:30:01;;;;;;;24.37;9.73;;;9.10;99.90;;;;;;5101718;27;38653;-77
2022/02/09 19:32:55;;;;;;;15.13;8.13;;;9.10;99.90;;;;;;5088484;27;38400;-77
2022/02/09 19:49:02;;;;;;;19.23;10.23;;;9.10;99.90;;;;;;5078666;27;39877;-77
2022/02/09 19:52:05;;;;;;;21.30;9.07;;;9.10;99.90;;;;;;5105157;27;48716;-77
2022/02/09 19:57:07;;;;;;;16.10;9.10;;;9.10;99.90;;;;;;5079801;27;35586;-77
2022/02/09 19:59:36;;;;;;;19.50;9.97;;;9.10;99.90;;;;;;5077497;27;38778;-77
2022/02/09 20:02:03;;;;;;;19.63;9.30;;;9.10;99.90;;;;;;5074547;27;36948;-77
2022/02/09 20:04:29;;;;;;;22.40;10.27;;;9.10;99.90;;;;;;5071391;27;36903;-76
2022/02/09 20:06:55;;;;;;;18.63;9.77;;;9.10;99.90;;;;;;5068649;27;36191;-78
2022/02/09 20:09:24;;;;;;;16.47;9.93;;;9.10;99.90;;;;;;5078323;27;38341;-77
2022/02/09 20:11:51;;;;;;;19.73;10.77;;;9.10;99.90;;;;;;5077321;27;37411;-77
2022/02/09 20:14:18;;;;;;;20.20;9.90;;;9.10;99.90;;;;;;5079914;27;37789;-77
2022/02/09 20:16:44;;;;;;;19.13;9.70;;;9.10;99.90;;;;;;5076677;27;38367;-76
2022/02/09 20:19:12;;;;;;;19.70;9.80;;;9.10;99.90;;;;;;5077697;28;37905;-76
2022/02/09 20:21:38;;;;;;;17.87;10.47;;;9.10;99.90;;;;;;5090339;27;37411;-76
2022/02/09 20:24:08;;;;;;;20.13;9.83;;;9.10;99.90;;;;;;5080333;27;37764;-76
2022/02/09 20:26:34;;;;;;;19.93;10.37;;;9.10;99.90;;;;;;5073929;27;36240;-77
2022/02/09 20:29:09;;;;;;;20.53;12.00;;;9.10;99.90;;;;;;5074489;27;38929;-78
2022/02/09 20:31:45;;;;;;;24.80;13.17;;;9.10;99.90;;;;;;5096377;27;48523;-77
2022/02/09 20:34:34;;;;;;;25.33;14.17;;;9.10;99.90;;;;;;5098586;27;37151;-77
2022/02/09 20:37:02;;;;;;;25.87;14.83;;;9.10;99.90;;;;;;5090021;27;40467;-79
2022/02/09 20:39:33;;;;;;;27.23;16.17;;;9.10;99.90;;;;;;5095522;27;47367;-77
2022/02/09 20:42:01;;;;;;;24.53;16.30;;;9.10;99.90;;;;;;5094526;27;38330;-76
2022/02/09 20:44:36;;;;;;;25.40;16.40;;;9.10;99.90;;;;;;5092600;27;47483;-79
2022/02/09 20:47:02;;;;;;;30.30;17.50;;;9.10;99.90;;;;;;5097215;27;37379;-77
2022/02/09 20:49:29;;;;;;;27.93;17.47;;;9.10;99.90;;;;;;5100037;27;40493;-77
2022/02/09 20:51:55;;;;;;;32.87;18.10;;;9.10;99.90;;;;;;5101603;27;37243;-77
2022/02/09 20:54:21;;;;;;;35.00;21.60;;;9.00;99.90;;;;;;5089296;27;37561;-77
2022/02/09 20:56:47;;;;;;;35.30;19.37;;;9.00;99.90;;;;;;5092070;27;38163;-77
2022/02/09 20:59:16;;;;;;;33.77;19.47;;;9.00;99.90;;;;;;5100297;27;38603;-77
2022/02/09 21:01:55;;;;;;;38.63;20.00;;;9.00;99.90;;;;;;5095185;27;37425;-77
2022/02/09 21:04:24;;;;;;;32.13;17.90;;;9.10;99.90;;;;;;5093076;27;37897;-77
2022/02/09 21:07:12;;;;;;;27.67;17.53;;;9.10;99.90;;;;;;5088814;27;36443;-77
2022/02/09 21:09:49;;;;;;;36.13;19.77;;;9.10;99.90;;;;;;5097666;27;47520;-78
2022/02/09 21:20:31;;;;;;;40.27;20.20;;;9.00;99.90;;;;;;5102915;27;39220;-78
2022/02/09 21:23:28;;;;;;;36.83;19.57;;;9.00;99.90;;;;;;5089615;27;47919;-80
2022/02/09 21:26:33;;;;;;;33.27;19.80;;;9.00;99.90;;;;;;5105076;27;49197;-79
2022/02/09 21:53:11;;;;;;;32.88;20.55;;;9.10;99.90;;;;;;5071821;27;49008;-79
2022/02/09 21:55:39;;;;;;;33.47;21.13;;;9.10;99.90;;;;;;5101495;27;48167;-80
2022/02/09 22:27:43;;;;;;;31.07;21.20;;;9.00;99.90;;;;;;5095939;27;49140;-79
2022/02/09 22:30:43;;;;;;;31.23;20.20;;;9.10;99.90;;;;;;5092137;27;37831;-79
2022/02/09 22:55:01;;;;;;;18.90;13.77;;;9.10;99.90;;;;;;5096859;27;38184;-79
2022/02/09 22:57:42;;;;;;;24.40;16.00;;;9.20;99.90;;;;;;5098410;27;47173;-79
2022/02/09 23:00:16;;;;;;;27.07;17.73;;;9.20;99.90;;;;;;5084467;27;38486;-79
2022/02/09 23:02:53;;;;;;;26.20;17.17;;;9.20;99.90;;;;;;5100679;27;48713;-79
2022/02/09 23:10:30;;;;;;;28.67;17.73;;;9.00;99.90;;;;;;5104137;27;38574;-79
2022/02/09 23:13:12;;;;;;;24.40;16.83;;;9.00;99.90;;;;;;5107341;27;37187;-79
2022/02/09 23:19:05;;;;;;;23.80;16.20;;;9.00;99.90;;;;;;5086428;27;48448;-79
2022/02/09 23:23:57;;;;;;;24.33;17.27;;;8.90;99.90;;;;;;5083679;27;38527;-77
2022/02/09 23:53:10;;;;;;;30.27;18.43;;;8.90;99.90;;;;;;5090092;27;38494;-78
